createdAt,value
2023-03-29T00:01:56.754Z,2.20
2023-03-29T00:04:30.429Z,4.50
2023-03-29T00:07:04.033Z,3.60
2023-03-29T00:09:33.489Z,6.20
2023-03-29T00:12:01.982Z,2.80
2023-03-29T00:14:31.122Z,6.00
2023-03-29T07:21:56.383Z,3.40
2023-03-29T07:24:34.978Z,5.50
2023-03-29T07:27:04.713Z,5.90
2023-03-29T07:32:02.315Z,4.80
2023-03-29T07:34:48.581Z,2.80
2023-03-29T07:37:35.256Z,2.70
2023-03-29T07:40:09.398Z,2.40
2023-03-29T07:42:50.774Z,5.20
2023-03-29T07:45:26.158Z,6.10
2023-03-29T07:48:14.782Z,4.10
2023-03-29T07:51:05.444Z,3.00
2023-03-29T07:53:46.023Z,4.60
2023-03-29T07:56:39.683Z,4.30
2023-03-29T07:59:18.212Z,6.80
2023-03-29T08:01:50.790Z,6.00
2023-03-29T08:04:41.274Z,4.10
2023-03-29T08:07:20.127Z,2.40
2023-03-29T08:10:14.204Z,7.20
2023-03-29T08:13:05.217Z,3.00
2023-03-29T08:21:02.140Z,4.80
2023-03-29T08:23:30.715Z,6.30
2023-03-29T08:26:13.696Z,2.90
2023-03-29T08:28:42.852Z,3.10
2023-03-29T08:31:12.051Z,5.50
2023-03-29T08:33:44.980Z,6.10
2023-03-29T08:36:47.506Z,4.40
2023-03-29T08:39:25.301Z,3.40
2023-03-29T08:42:18.981Z,4.50
2023-03-29T08:45:03.893Z,4.90
2023-03-29T08:47:38.297Z,4.10
2023-03-29T08:50:09.745Z,3.40
2023-03-29T08:52:51.696Z,4.30
2023-03-29T08:55:44.129Z,3.80
2023-03-29T08:58:44.815Z,6.20
2023-03-29T09:01:17.034Z,3.50
2023-03-29T09:04:14.975Z,5.20
2023-03-29T09:07:11.185Z,4.50
2023-03-29T09:09:46.874Z,3.90
2023-03-29T09:13:02.954Z,4.50
2023-03-29T09:15:44.139Z,4.60
2023-03-29T09:18:27.348Z,2.60
2023-03-29T09:21:00.695Z,7.50
2023-03-29T09:23:57.839Z,2.40
2023-03-29T09:26:56.333Z,2.80
2023-03-29T09:29:52.656Z,8.00
2023-03-29T09:32:57.914Z,5.10
2023-03-29T09:38:49.581Z,5.20
2023-03-29T09:41:40.023Z,5.50
2023-03-29T09:44:29.853Z,10.30
2023-03-29T09:47:43.841Z,7.10
2023-03-29T09:50:30.161Z,5.90
2023-03-29T09:53:24.601Z,5.60
2023-03-29T09:56:15.960Z,4.20
2023-03-29T09:59:01.642Z,4.80
2023-03-29T10:01:44.619Z,7.30
2023-03-29T10:04:20.285Z,4.00
2023-03-29T10:06:59.939Z,8.10
2023-03-29T10:09:36.978Z,7.50
2023-03-29T10:12:42.942Z,5.40
2023-03-29T10:15:29.317Z,5.10
2023-03-29T10:18:27.620Z,8.30
2023-03-29T10:21:24.066Z,7.40
2023-03-29T10:24:02.936Z,7.10
2023-03-29T10:26:33.287Z,5.10
2023-03-29T10:29:05.019Z,4.10
2023-03-29T10:31:34.516Z,4.80
2023-03-29T10:34:09.186Z,5.90
2023-03-29T10:36:45.222Z,4.10
2023-03-29T10:39:16.328Z,3.50
2023-03-29T10:41:50.924Z,6.00
2023-03-29T10:44:44.483Z,5.80
2023-03-29T10:47:16.929Z,4.00
2023-03-29T10:50:08.071Z,4.00
2023-03-29T10:52:39.462Z,5.70
2023-03-29T10:55:12.937Z,7.50
2023-03-29T10:58:02.871Z,4.40
2023-03-29T11:00:32.827Z,6.20
2023-03-29T11:03:16.618Z,7.40
2023-03-29T11:06:30.768Z,3.80
2023-03-29T11:09:00.025Z,6.30
2023-03-29T11:11:58.374Z,4.90
2023-03-29T11:14:42.101Z,8.20
2023-03-29T11:17:39.060Z,3.30
2023-03-29T11:20:16.357Z,3.40
2023-03-29T11:23:17.983Z,7.40
2023-03-29T11:26:01.672Z,3.90
2023-03-29T11:28:47.086Z,4.70
2023-03-29T11:31:37.083Z,5.50
2023-03-29T11:34:37.954Z,2.90
2023-03-29T11:37:12.587Z,4.70
2023-03-29T11:39:59.301Z,3.80
2023-03-29T11:42:32.285Z,4.70
2023-03-29T11:45:02.414Z,5.90
2023-03-29T11:47:37.349Z,4.90
2023-03-29T11:50:26.624Z,7.60
2023-03-29T11:53:37.476Z,3.70
2023-03-29T11:56:57.740Z,4.40
2023-03-29T12:00:06.425Z,5.60
2023-03-29T12:03:05.184Z,4.00
2023-03-29T12:06:24.447Z,7.50
2023-03-29T12:09:34.286Z,7.20
2023-03-29T12:12:39.639Z,5.10
2023-03-29T12:15:23.106Z,7.20
2023-03-29T12:18:11.615Z,4.00
2023-03-29T12:20:41.020Z,4.60
2023-03-29T12:29:09.932Z,12.40
2023-03-29T12:31:49.302Z,7.10
2023-03-29T12:35:16.759Z,7.10
2023-03-29T12:38:24.150Z,5.00
2023-03-29T12:41:22.227Z,3.80
2023-03-29T12:44:49.225Z,2.90
2023-03-29T12:47:44.312Z,5.70
2023-03-29T12:50:52.081Z,5.40
2023-03-29T12:53:38.837Z,6.90
2023-03-29T12:56:19.806Z,3.20
2023-03-29T12:59:07.958Z,5.20
2023-03-29T13:01:39.128Z,4.20
2023-03-29T13:05:10.837Z,4.40
2023-03-29T13:07:47.424Z,6.00
2023-03-29T13:10:52.648Z,6.90
2023-03-29T13:13:29.839Z,3.70
2023-03-29T13:16:18.390Z,3.30
2023-03-29T13:19:32.108Z,3.50
2023-03-29T13:22:44.509Z,3.70
2023-03-29T13:25:56.096Z,4.90
2023-03-29T13:28:51.264Z,4.10
2023-03-29T13:31:35.804Z,3.10
2023-03-29T13:34:43.235Z,3.60
2023-03-29T13:37:38.219Z,4.40
2023-03-29T13:40:34.943Z,5.60
2023-03-29T14:04:54.000Z,6.50
2023-03-29T14:07:26.438Z,5.50
2023-03-29T14:09:56.116Z,9.40
2023-03-29T14:12:34.086Z,8.30
2023-03-29T14:15:05.192Z,6.00
2023-03-29T14:17:35.809Z,5.50
2023-03-29T14:20:09.465Z,9.10
2023-03-29T14:22:45.709Z,5.00
2023-03-29T14:25:17.420Z,2.80
2023-03-29T14:27:45.741Z,4.60
2023-03-29T14:30:27.602Z,4.10
2023-03-29T14:33:25.972Z,3.80
2023-03-29T14:35:55.274Z,8.00
2023-03-29T14:38:24.653Z,12.30
2023-03-29T14:40:53.735Z,16.10
2023-03-29T14:43:24.361Z,14.60
2023-03-29T14:45:53.074Z,8.50
2023-03-29T14:48:22.860Z,8.20
2023-03-29T14:50:51.713Z,9.00
2023-03-29T14:53:22.915Z,9.90
2023-03-29T14:55:52.924Z,6.70
2023-03-29T14:58:32.949Z,12.50
2023-03-29T15:01:06.297Z,7.20
2023-03-29T15:03:49.621Z,7.00
2023-03-29T15:06:18.261Z,4.30
2023-03-29T15:09:01.471Z,8.20
2023-03-29T15:11:34.535Z,8.70
2023-03-29T15:14:14.325Z,4.00
2023-03-29T15:16:44.031Z,8.10
2023-03-29T15:19:22.242Z,9.80
2023-03-29T15:21:51.541Z,10.10
2023-03-29T15:24:21.978Z,6.90
2023-03-29T15:27:19.941Z,2.20
2023-03-29T15:29:48.629Z,3.40
2023-03-29T15:32:25.286Z,8.80
2023-03-29T15:35:01.676Z,3.70
2023-03-29T15:37:31.278Z,6.30
2023-03-29T15:39:59.845Z,4.80
2023-03-29T15:44:58.573Z,5.10
2023-03-29T15:47:28.174Z,6.70
2023-03-29T15:49:56.659Z,5.40
2023-03-29T15:52:25.074Z,7.80
2023-03-29T15:54:53.398Z,12.20
2023-03-29T15:57:22.113Z,13.90
2023-03-29T15:59:50.812Z,8.60
2023-03-29T16:02:23.652Z,8.80
2023-03-29T16:04:52.243Z,9.90
2023-03-29T16:07:21.220Z,13.90
2023-03-29T16:09:49.518Z,12.20
2023-03-29T16:12:20.846Z,9.40
2023-03-29T16:14:49.943Z,7.00
2023-03-29T16:17:18.728Z,4.50
2023-03-29T16:19:49.614Z,8.50
2023-03-29T16:22:18.172Z,13.00
2023-03-29T16:24:46.738Z,7.80
2023-03-29T16:27:15.516Z,6.30
2023-03-29T16:29:44.492Z,6.90
2023-03-29T16:32:13.346Z,9.10
2023-03-29T16:34:43.616Z,6.40
2023-03-29T16:37:13.135Z,6.90
2023-03-29T16:39:44.635Z,15.40
2023-03-29T16:42:12.978Z,4.50
2023-03-29T16:44:41.091Z,8.40
2023-03-29T16:47:12.806Z,7.70
2023-03-29T16:49:48.753Z,4.20
2023-03-29T16:52:17.736Z,9.10
2023-03-29T16:54:49.052Z,7.60
2023-03-29T16:57:17.502Z,10.80
2023-03-29T16:59:47.909Z,10.00
2023-03-29T17:02:16.505Z,10.60
2023-03-29T17:04:45.744Z,15.60
2023-03-29T17:07:14.758Z,9.20
2023-03-29T17:09:43.581Z,6.80
2023-03-29T17:12:12.445Z,10.20
2023-03-29T17:14:42.142Z,6.80
2023-03-29T17:17:14.306Z,7.60
2023-03-29T17:19:42.709Z,6.10
2023-03-29T17:22:11.170Z,6.40
2023-03-29T17:24:50.146Z,7.00
2023-03-29T17:27:19.096Z,8.40
2023-03-29T17:29:47.567Z,7.80
2023-03-29T17:32:15.940Z,11.40
2023-03-29T17:34:44.382Z,10.80
2023-03-29T17:37:13.112Z,7.40
2023-03-29T17:39:42.293Z,6.00
2023-03-29T17:42:11.101Z,8.60
2023-03-29T17:44:41.111Z,7.30
2023-03-29T17:47:09.801Z,11.20
2023-03-29T17:49:41.960Z,9.20
2023-03-29T17:52:10.789Z,9.50
2023-03-29T17:54:39.235Z,20.80
2023-03-29T17:57:32.803Z,25.50
2023-03-29T18:00:27.204Z,45.70
2023-03-29T18:02:56.525Z,53.00
2023-03-29T18:06:21.167Z,37.60
2023-03-29T18:08:49.827Z,28.40
2023-03-29T18:11:24.943Z,20.90
2023-03-29T18:13:53.715Z,48.60
2023-03-29T18:16:25.828Z,83.60
2023-03-29T18:18:55.989Z,92.50
2023-03-29T18:21:27.756Z,70.30
2023-03-29T18:23:57.132Z,76.70
2023-03-29T18:26:26.138Z,114.40
2023-03-29T18:29:00.973Z,125.80
2023-03-29T18:31:33.776Z,92.20
2023-03-29T18:34:03.473Z,167.20
2023-03-29T18:36:33.064Z,210.40
2023-03-29T18:39:06.179Z,230.90
2023-03-29T18:41:38.108Z,229.30
2023-03-29T18:44:08.088Z,196.20
2023-03-29T18:46:36.607Z,152.70
2023-03-29T18:49:07.816Z,164.90
2023-03-29T18:51:36.337Z,180.10
2023-03-29T18:54:05.493Z,181.60
2023-03-29T18:56:34.315Z,177.70
2023-03-29T18:59:07.042Z,243.40
2023-03-29T19:02:03.148Z,381.50
2023-03-29T19:04:32.138Z,246.00
2023-03-29T19:07:01.599Z,247.50
2023-03-29T19:09:57.272Z,169.40
2023-03-29T19:13:21.369Z,140.40
2023-03-29T19:15:51.989Z,149.40
2023-03-29T19:20:55.277Z,189.40
2023-03-29T19:23:26.213Z,209.70
2023-03-29T19:28:23.584Z,78.50
2023-03-29T19:30:55.042Z,81.20
2023-03-29T19:33:24.151Z,51.00
2023-03-29T19:35:52.868Z,44.00
2023-03-29T19:38:22.824Z,39.30
2023-03-29T19:40:51.583Z,30.30
2023-03-29T19:43:22.245Z,27.30
2023-03-29T19:45:59.743Z,29.10
2023-03-29T19:48:28.937Z,20.90
2023-03-29T19:51:00.643Z,15.10
2023-03-29T19:53:29.633Z,15.90
2023-03-29T19:56:02.290Z,18.50
2023-03-29T19:58:31.659Z,19.50
2023-03-29T20:01:00.300Z,14.20
2023-03-29T20:03:30.144Z,13.70
2023-03-29T20:05:58.838Z,20.00
2023-03-29T20:08:27.411Z,15.90
2023-03-29T20:11:04.109Z,16.00
2023-03-29T20:16:11.680Z,35.00
2023-03-29T20:19:31.383Z,24.00
2023-03-29T20:22:26.304Z,17.60
2023-03-29T20:24:54.554Z,28.50
2023-03-29T20:27:23.994Z,45.60
2023-03-29T20:29:55.640Z,48.30
2023-03-29T20:32:24.365Z,30.70
2023-03-29T20:34:53.005Z,21.50
2023-03-29T20:37:23.308Z,22.70
2023-03-29T20:39:53.328Z,22.60
2023-03-29T20:42:24.709Z,23.20
2023-03-29T20:44:55.972Z,23.90
2023-03-29T20:47:25.964Z,26.40
2023-03-29T20:49:54.659Z,27.80
2023-03-29T20:52:23.733Z,28.90
2023-03-29T20:54:52.426Z,27.20
2023-03-29T20:57:21.473Z,21.00
2023-03-29T20:59:51.220Z,20.30
2023-03-29T21:02:21.588Z,23.40
2023-03-29T21:04:53.006Z,9.90
2023-03-29T21:07:21.896Z,18.40
2023-03-29T21:09:51.014Z,18.80
2023-03-29T21:12:20.354Z,21.90
2023-03-29T21:14:48.887Z,21.00
2023-03-29T21:17:17.841Z,22.00
2023-03-29T21:19:48.087Z,25.60
2023-03-29T21:22:17.780Z,19.20
2023-03-29T21:24:46.767Z,27.90
2023-03-29T21:27:15.565Z,26.20
2023-03-29T21:29:49.868Z,20.30
2023-03-29T21:32:21.627Z,24.70
2023-03-29T21:34:49.958Z,28.30
2023-03-29T21:37:46.541Z,21.20
2023-03-29T21:40:15.949Z,27.30
2023-03-29T21:42:44.165Z,16.60
2023-03-29T21:45:15.752Z,19.00
2023-03-29T21:47:44.440Z,14.60
2023-03-29T21:50:12.971Z,11.40
2023-03-29T21:52:42.078Z,14.80
2023-03-29T21:55:10.727Z,17.30
2023-03-29T21:57:39.510Z,12.10
2023-03-29T22:00:12.910Z,12.20
2023-03-29T22:02:42.634Z,5.60
2023-03-29T22:05:15.096Z,7.00
2023-03-29T22:07:50.628Z,6.10
2023-03-29T22:10:25.875Z,8.90
2023-03-29T22:13:00.255Z,5.20
2023-03-29T22:15:35.745Z,6.70
2023-03-29T22:18:14.048Z,7.40
2023-03-29T22:20:45.214Z,7.50
2023-03-29T22:23:15.657Z,8.60
2023-03-29T22:25:44.205Z,13.00
2023-03-29T22:28:14.012Z,8.90
2023-03-29T22:30:43.521Z,6.50
2023-03-29T22:35:44.378Z,16.90
2023-03-29T22:38:16.779Z,8.80
2023-03-29T22:40:51.062Z,9.30
2023-03-29T22:48:13.544Z,22.00
2023-03-29T22:50:46.214Z,17.30
2023-03-29T22:53:18.065Z,12.10
2023-03-29T22:55:46.751Z,15.10
2023-03-29T22:58:20.569Z,13.00
2023-03-29T23:00:49.464Z,30.50
2023-03-29T23:03:18.345Z,18.00
2023-03-29T23:08:22.287Z,9.00
2023-03-29T23:10:52.399Z,13.90
2023-03-29T23:13:29.583Z,18.30
2023-03-29T23:16:00.327Z,17.80
2023-03-29T23:18:29.682Z,19.80
2023-03-29T23:20:59.310Z,14.40
2023-03-29T23:23:28.432Z,15.20
2023-03-29T23:26:00.674Z,22.90
2023-03-29T23:28:31.856Z,16.50
2023-03-29T23:31:10.756Z,17.60
2023-03-29T23:33:43.309Z,17.90
2023-03-29T23:36:16.715Z,13.00
2023-03-29T23:38:46.974Z,16.30
2023-03-29T23:41:16.942Z,15.00
2023-03-29T23:43:50.848Z,13.30
2023-03-29T23:46:19.118Z,12.40
2023-03-29T23:48:49.312Z,12.40
2023-03-29T23:51:18.937Z,11.00
2023-03-29T23:53:48.054Z,14.40
2023-03-29T23:56:21.961Z,17.00
2023-03-29T23:58:56.994Z,8.20
